Time;durP1;ratioP1;P1;durP2;ratioP2;P2;SDS_P1;SDS_P2;PMS_P1;PMS_P2;Temp;Humidity;BMP_temperature;BMP_pressure;BME280_temperature;BME280_humidity;BME280_pressure;Samples;Min_cycle;Max_cycle;Signal;HPM_P1;HPM_P2
2023/02/10 00:00:29;;;;;;;26.40;10.03;;;6.50;99.90;;;;;;6113173;23;20687;-70
2023/02/10 00:02:56;;;;;;;23.80;11.10;;;6.60;99.90;;;;;;6109511;23;20418;-70
2023/02/10 00:05:23;;;;;;;21.87;11.07;;;6.60;99.90;;;;;;6120651;23;20447;-70
2023/02/10 00:07:51;;;;;;;23.53;10.03;;;6.60;99.90;;;;;;6061681;23;20417;-70
2023/02/10 00:10:19;;;;;;;20.10;10.77;;;6.60;99.90;;;;;;6117988;23;20472;-69
2023/02/10 00:12:45;;;;;;;17.77;9.60;;;6.50;99.90;;;;;;6113834;23;20406;-71
2023/02/10 00:15:14;;;;;;;16.40;11.33;;;6.50;99.90;;;;;;6109798;23;20493;-70
2023/02/10 00:17:41;;;;;;;20.97;12.10;;;6.50;99.90;;;;;;6114432;23;20765;-70
2023/02/10 00:20:09;;;;;;;22.33;9.80;;;6.50;99.90;;;;;;6113442;23;20930;-70
2023/02/10 00:22:37;;;;;;;24.30;10.93;;;6.40;99.90;;;;;;6113888;23;20477;-69
2023/02/10 00:25:04;;;;;;;14.17;8.63;;;6.50;99.90;;;;;;6113722;23;20947;-70
2023/02/10 00:27:31;;;;;;;21.00;9.93;;;6.50;99.90;;;;;;6116639;23;20498;-69
2023/02/10 00:29:58;;;;;;;23.93;10.00;;;6.50;99.90;;;;;;6118799;23;20991;-70
2023/02/10 00:32:27;;;;;;;21.17;9.57;;;6.40;99.90;;;;;;6115534;23;20822;-69
2023/02/10 00:34:53;;;;;;;21.20;13.40;;;6.40;99.90;;;;;;6114556;23;20407;-69
2023/02/10 00:37:20;;;;;;;23.80;14.53;;;6.50;99.90;;;;;;6114708;23;20386;-68
2023/02/10 00:39:48;;;;;;;25.93;11.90;;;6.30;99.90;;;;;;6111819;23;20439;-69
2023/02/10 00:42:15;;;;;;;15.33;9.43;;;6.30;99.90;;;;;;6059074;23;20767;-69
2023/02/10 00:44:41;;;;;;;17.07;10.47;;;6.20;99.90;;;;;;6115130;23;20911;-69
2023/02/10 00:47:10;;;;;;;18.73;9.70;;;6.10;99.90;;;;;;6114415;23;20964;-69
2023/02/10 00:49:38;;;;;;;19.60;12.13;;;6.20;99.90;;;;;;6116743;23;20596;-69
2023/02/10 00:52:05;;;;;;;20.87;11.30;;;6.30;99.90;;;;;;6114228;23;20416;-68
2023/02/10 00:54:32;;;;;;;21.30;10.43;;;6.30;99.90;;;;;;6117819;23;20418;-69
2023/02/10 00:56:59;;;;;;;17.93;10.00;;;6.20;99.90;;;;;;6118236;23;20392;-69
2023/02/10 00:59:26;;;;;;;18.67;9.87;;;6.40;99.90;;;;;;6122815;23;20464;-69
2023/02/10 01:01:53;;;;;;;28.80;12.30;;;6.50;99.90;;;;;;6125569;23;20504;-70
2023/02/10 01:04:20;;;;;;;20.87;11.10;;;6.50;99.90;;;;;;6123651;23;20482;-68
2023/02/10 01:06:48;;;;;;;20.07;12.10;;;6.50;99.90;;;;;;6120898;23;20381;-69
2023/02/10 01:09:15;;;;;;;20.50;11.23;;;6.50;99.90;;;;;;6113116;23;20445;-69
2023/02/10 01:11:42;;;;;;;17.67;9.60;;;6.40;99.90;;;;;;6117882;23;20427;-69
2023/02/10 01:14:09;;;;;;;28.47;12.40;;;6.40;99.90;;;;;;6121155;23;20444;-69
2023/02/10 01:16:37;;;;;;;31.17;11.63;;;6.40;99.90;;;;;;6123729;23;20382;-69
2023/02/10 01:19:04;;;;;;;24.17;12.10;;;6.30;99.90;;;;;;6118407;23;20411;-68
2023/02/10 01:21:36;;;;;;;21.07;11.20;;;6.20;99.90;;;;;;6114500;23;20452;-69
2023/02/10 01:24:05;;;;;;;29.77;14.87;;;6.20;99.90;;;;;;6116738;23;20790;-70
2023/02/10 01:26:32;;;;;;;18.17;10.47;;;6.20;99.90;;;;;;6114497;23;20411;-69
2023/02/10 01:29:00;;;;;;;18.60;11.57;;;6.30;99.90;;;;;;6118755;23;20401;-70
2023/02/10 01:31:27;;;;;;;24.53;11.67;;;6.20;99.90;;;;;;6116700;23;20650;-68
2023/02/10 01:33:55;;;;;;;12.10;9.40;;;6.20;99.90;;;;;;6117274;23;20410;-70
2023/02/10 01:36:24;;;;;;;15.87;10.00;;;6.20;99.90;;;;;;6112296;23;20460;-70
2023/02/10 01:38:52;;;;;;;17.93;10.00;;;6.30;99.90;;;;;;6120265;23;20992;-71
2023/02/10 01:41:23;;;;;;;24.53;10.83;;;6.20;99.90;;;;;;6120037;23;20435;-70
2023/02/10 01:43:56;;;;;;;20.17;10.47;;;6.20;99.90;;;;;;6118937;23;20377;-70
2023/02/10 01:46:23;;;;;;;26.00;11.47;;;6.20;99.90;;;;;;6117724;23;20422;-70
2023/02/10 01:48:51;;;;;;;16.10;9.27;;;6.10;99.90;;;;;;6116572;23;20382;-71
2023/02/10 01:51:21;;;;;;;17.93;9.63;;;6.10;99.90;;;;;;6118826;23;20483;-68
2023/02/10 01:53:48;;;;;;;25.73;10.60;;;6.10;99.90;;;;;;6114688;23;20490;-70
2023/02/10 01:56:17;;;;;;;13.73;10.17;;;6.10;99.90;;;;;;6116078;23;20841;-71
2023/02/10 01:58:47;;;;;;;20.70;10.97;;;6.10;99.90;;;;;;6116935;23;20410;-70
2023/02/10 02:01:15;;;;;;;27.80;12.57;;;6.10;99.90;;;;;;6121599;23;20423;-70
2023/02/10 02:03:42;;;;;;;16.20;9.80;;;6.20;99.90;;;;;;6114375;23;20392;-71
2023/02/10 02:06:10;;;;;;;20.90;10.70;;;6.20;99.90;;;;;;6116202;23;20499;-70
2023/02/10 02:08:38;;;;;;;20.17;9.43;;;6.20;99.90;;;;;;6115709;23;20416;-70
2023/02/10 02:11:24;;;;;;;27.13;11.10;;;6.10;99.90;;;;;;6119122;23;20432;-70
2023/02/10 02:14:23;;;;;;;24.10;11.70;;;6.00;99.90;;;;;;6117491;23;20449;-71
2023/02/10 02:17:00;;;;;;;31.47;12.47;;;6.00;99.90;;;;;;6110365;23;20451;-69
2023/02/10 02:20:40;;;;;;;21.10;10.00;;;6.10;99.90;;;;;;6067272;23;20450;-70
2023/02/10 02:23:26;;;;;;;26.40;10.43;;;6.10;99.90;;;;;;6116217;23;20412;-70
2023/02/10 02:26:20;;;;;;;18.57;10.30;;;6.10;99.90;;;;;;6022980;23;20618;-69
2023/02/10 02:32:34;;;;;;;18.40;11.03;;;5.80;99.90;;;;;;6127844;23;20433;-70
2023/02/10 02:35:05;;;;;;;27.20;12.20;;;5.70;99.90;;;;;;6114604;23;20434;-70
2023/02/10 02:37:34;;;;;;;32.00;11.63;;;5.50;99.90;;;;;;6114542;23;20450;-69
2023/02/10 02:40:02;;;;;;;24.03;11.67;;;5.40;99.90;;;;;;6122836;23;20450;-70
2023/02/10 02:42:30;;;;;;;14.00;9.70;;;5.30;99.90;;;;;;6119035;23;20430;-69
2023/02/10 02:45:02;;;;;;;25.83;11.43;;;5.30;99.90;;;;;;6119289;23;20381;-69
2023/02/10 02:47:47;;;;;;;24.80;10.47;;;5.20;99.90;;;;;;6117768;23;20872;-69
2023/02/10 02:50:23;;;;;;;24.80;12.73;;;5.20;99.90;;;;;;6120187;23;20488;-70
2023/02/10 02:53:10;;;;;;;30.13;13.03;;;5.10;99.90;;;;;;6118714;23;20754;-68
2023/02/10 02:55:46;;;;;;;27.27;12.23;;;5.10;99.90;;;;;;6122573;23;20449;-69
2023/02/10 02:58:19;;;;;;;30.50;13.17;;;5.20;99.90;;;;;;6114421;23;20362;-68
2023/02/10 03:00:47;;;;;;;27.67;12.00;;;5.40;99.90;;;;;;6120699;23;20527;-69
2023/02/10 03:03:17;;;;;;;24.60;10.40;;;5.40;99.90;;;;;;6123355;23;20678;-70
2023/02/10 03:05:44;;;;;;;19.00;7.27;;;5.40;99.90;;;;;;6119207;23;20532;-69
2023/02/10 03:08:11;;;;;;;29.63;11.47;;;5.40;99.90;;;;;;6119734;23;20441;-69
2023/02/10 03:10:38;;;;;;;17.93;10.43;;;5.30;99.90;;;;;;6120164;23;20453;-68
2023/02/10 03:13:05;;;;;;;26.83;11.97;;;5.30;99.90;;;;;;6120645;23;20449;-70
2023/02/10 03:15:32;;;;;;;19.93;10.20;;;5.30;99.90;;;;;;6119606;23;20385;-70
2023/02/10 03:17:59;;;;;;;18.03;10.73;;;5.20;99.90;;;;;;6115773;23;20386;-69
2023/02/10 03:20:27;;;;;;;26.10;14.17;;;5.20;99.90;;;;;;6118480;23;20981;-69
2023/02/10 03:22:54;;;;;;;15.73;7.67;;;4.90;99.90;;;;;;6064240;23;20404;-70
2023/02/10 03:25:21;;;;;;;18.60;9.10;;;4.90;99.90;;;;;;6119681;23;20654;-69
2023/02/10 03:27:48;;;;;;;26.13;11.80;;;5.00;99.90;;;;;;6118389;23;20394;-70
2023/02/10 03:30:15;;;;;;;25.77;11.90;;;4.90;99.90;;;;;;6119822;23;20414;-69
2023/02/10 03:32:42;;;;;;;22.57;10.23;;;4.90;99.90;;;;;;6118401;23;20589;-69
2023/02/10 03:35:09;;;;;;;21.40;12.13;;;4.90;99.90;;;;;;6120802;23;20471;-69
2023/02/10 03:37:37;;;;;;;24.30;10.23;;;5.00;99.90;;;;;;6120681;23;20879;-69
2023/02/10 03:40:05;;;;;;;25.27;11.33;;;5.00;99.90;;;;;;6118407;23;20411;-70
2023/02/10 03:42:31;;;;;;;18.20;9.93;;;4.90;99.90;;;;;;6122520;23;20445;-70
2023/02/10 03:44:58;;;;;;;17.33;11.70;;;4.80;99.90;;;;;;6120773;23;20483;-70
2023/02/10 03:47:25;;;;;;;24.87;9.27;;;4.80;99.90;;;;;;6121981;23;20414;-70
2023/02/10 03:49:52;;;;;;;29.17;12.13;;;4.90;99.90;;;;;;6117916;23;20411;-70
2023/02/10 03:52:19;;;;;;;25.43;12.37;;;4.80;99.90;;;;;;6121247;23;21013;-70
2023/02/10 03:54:47;;;;;;;34.60;14.03;;;4.70;99.90;;;;;;6120383;23;20411;-70
2023/02/10 03:57:14;;;;;;;27.47;13.50;;;4.60;99.90;;;;;;6119379;23;20461;-70
2023/02/10 03:59:41;;;;;;;20.20;11.97;;;4.60;99.90;;;;;;6120811;23;20412;-70
2023/02/10 04:02:08;;;;;;;22.87;11.90;;;4.70;99.90;;;;;;6121147;23;20659;-70
2023/02/10 04:04:35;;;;;;;29.40;13.70;;;4.70;99.90;;;;;;6120349;23;20418;-70
2023/02/10 04:07:02;;;;;;;17.33;12.53;;;4.60;99.90;;;;;;6120225;23;20498;-69
2023/02/10 04:09:30;;;;;;;37.70;14.17;;;4.60;99.90;;;;;;6120374;23;20494;-69
2023/02/10 04:11:58;;;;;;;36.93;13.30;;;4.50;99.90;;;;;;6118555;23;20627;-69
2023/02/10 04:14:25;;;;;;;29.77;13.27;;;4.50;99.90;;;;;;6122159;23;20438;-69
2023/02/10 04:16:52;;;;;;;38.57;13.60;;;4.50;99.90;;;;;;6119161;23;20443;-69
2023/02/10 04:19:19;;;;;;;25.07;12.57;;;4.50;99.90;;;;;;6118509;23;20862;-69
2023/02/10 04:21:46;;;;;;;26.87;13.57;;;4.50;99.90;;;;;;6121738;23;20423;-70
2023/02/10 04:24:13;;;;;;;18.90;9.00;;;4.50;99.90;;;;;;6126542;23;20511;-69
2023/02/10 04:26:40;;;;;;;15.23;9.83;;;4.40;99.90;;;;;;6122556;23;20480;-69
2023/02/10 04:29:08;;;;;;;20.63;10.13;;;4.20;99.90;;;;;;6121710;23;20493;-69
2023/02/10 04:31:35;;;;;;;39.03;15.27;;;4.20;99.90;;;;;;6122203;23;20503;-70
2023/02/10 04:34:03;;;;;;;23.17;12.57;;;4.20;99.90;;;;;;6122238;23;20534;-69
2023/02/10 04:36:30;;;;;;;22.37;12.63;;;4.00;99.90;;;;;;6117288;23;20761;-69
2023/02/10 04:38:57;;;;;;;27.47;12.67;;;4.00;99.90;;;;;;6116840;23;20607;-69
2023/02/10 04:41:26;;;;;;;35.03;13.97;;;4.00;99.90;;;;;;6117119;23;20459;-68
2023/02/10 04:43:53;;;;;;;23.00;12.53;;;4.00;99.90;;;;;;6121707;23;20390;-71
2023/02/10 04:46:21;;;;;;;25.00;13.57;;;4.00;99.90;;;;;;6119733;23;20447;-71
2023/02/10 04:48:48;;;;;;;21.33;11.83;;;4.00;99.90;;;;;;6121101;23;20423;-71
2023/02/10 04:51:16;;;;;;;22.47;13.40;;;4.00;99.90;;;;;;6119490;23;20454;-70
2023/02/10 04:53:44;;;;;;;24.70;13.27;;;3.90;99.90;;;;;;6067480;23;20490;-70
2023/02/10 04:56:11;;;;;;;30.10;11.63;;;3.80;99.90;;;;;;6118942;23;20420;-70
2023/02/10 04:58:38;;;;;;;29.87;12.10;;;4.00;99.90;;;;;;6118417;23;20425;-69
2023/02/10 05:01:05;;;;;;;14.97;10.67;;;4.00;99.90;;;;;;6121145;23;20502;-70
2023/02/10 05:03:34;;;;;;;25.83;13.00;;;4.10;99.90;;;;;;6125955;23;20440;-70
2023/02/10 05:06:06;;;;;;;15.67;11.67;;;4.00;99.90;;;;;;6122664;23;20527;-70
2023/02/10 05:08:33;;;;;;;14.93;9.80;;;4.00;99.90;;;;;;6124772;23;20864;-70
2023/02/10 05:11:00;;;;;;;19.73;11.67;;;4.00;99.90;;;;;;6120947;23;20425;-70
2023/02/10 05:13:27;;;;;;;22.60;10.20;;;4.10;99.90;;;;;;6120713;23;20382;-70
2023/02/10 05:15:54;;;;;;;28.50;11.90;;;4.10;99.90;;;;;;6121768;23;20898;-69
2023/02/10 05:18:21;;;;;;;26.97;12.97;;;4.20;99.90;;;;;;6122150;23;20386;-70
2023/02/10 05:20:49;;;;;;;30.23;14.00;;;4.00;99.90;;;;;;6118502;23;20438;-69
2023/02/10 05:23:16;;;;;;;30.13;13.20;;;4.00;99.90;;;;;;6121115;23;20385;-69
2023/02/10 05:25:43;;;;;;;27.13;14.40;;;4.00;99.90;;;;;;6121671;23;20465;-70
2023/02/10 05:28:10;;;;;;;21.33;11.63;;;4.00;99.90;;;;;;6120950;23;20963;-70
2023/02/10 05:30:37;;;;;;;22.07;14.30;;;4.00;99.90;;;;;;6121239;23;20456;-70
2023/02/10 05:33:04;;;;;;;19.43;12.00;;;4.00;99.90;;;;;;6121789;23;20924;-69
2023/02/10 05:35:31;;;;;;;20.33;9.93;;;4.10;99.90;;;;;;6122805;23;20422;-70
2023/02/10 05:38:01;;;;;;;43.53;16.17;;;4.10;99.90;;;;;;6121273;23;20463;-70
2023/02/10 05:40:28;;;;;;;24.63;12.20;;;4.10;99.90;;;;;;6120745;23;20418;-69
2023/02/10 05:42:55;;;;;;;21.13;10.13;;;4.00;99.90;;;;;;6124489;23;20744;-70
2023/02/10 05:45:23;;;;;;;30.43;11.87;;;4.00;99.90;;;;;;6124540;23;20669;-69
2023/02/10 05:47:51;;;;;;;27.27;10.33;;;4.00;99.90;;;;;;6122082;23;20408;-70
2023/02/10 05:50:18;;;;;;;27.90;13.07;;;4.00;99.90;;;;;;6121929;23;20386;-69
2023/02/10 05:52:45;;;;;;;18.57;12.63;;;4.00;99.90;;;;;;6122160;23;20438;-70
2023/02/10 05:55:13;;;;;;;21.53;13.00;;;4.10;99.90;;;;;;6123720;23;20418;-70
2023/02/10 05:57:40;;;;;;;17.83;11.73;;;4.00;99.90;;;;;;6122831;23;20529;-71
2023/02/10 06:00:09;;;;;;;22.97;11.83;;;4.10;99.90;;;;;;6121155;23;20927;-70
2023/02/10 06:02:39;;;;;;;26.73;12.73;;;4.20;99.90;;;;;;6121804;23;20939;-71
2023/02/10 06:05:07;;;;;;;24.33;14.13;;;4.20;99.90;;;;;;6121744;23;20421;-70
2023/02/10 06:07:33;;;;;;;36.03;14.00;;;4.20;99.90;;;;;;6121614;23;20456;-72
2023/02/10 06:10:00;;;;;;;22.47;14.50;;;4.30;99.90;;;;;;6122260;23;20411;-70
2023/02/10 06:12:29;;;;;;;26.20;13.40;;;4.40;99.90;;;;;;6121906;23;20457;-71
2023/02/10 06:14:56;;;;;;;23.13;12.80;;;4.40;99.90;;;;;;6119416;23;20411;-71
2023/02/10 06:17:26;;;;;;;29.13;14.30;;;4.40;99.90;;;;;;6123070;23;20415;-71
2023/02/10 06:19:52;;;;;;;26.67;10.70;;;4.50;99.90;;;;;;6128029;23;20439;-71
2023/02/10 06:22:19;;;;;;;22.80;13.73;;;4.50;99.90;;;;;;6122584;23;20515;-69
2023/02/10 06:24:48;;;;;;;23.87;11.47;;;4.50;99.90;;;;;;6126327;23;21031;-70
2023/02/10 06:27:16;;;;;;;18.07;11.20;;;4.50;99.90;;;;;;6126545;23;20793;-70
2023/02/10 06:29:45;;;;;;;34.63;15.80;;;4.50;99.90;;;;;;6123366;23;20386;-70
2023/02/10 06:32:11;;;;;;;33.70;13.83;;;4.50;99.90;;;;;;6122689;23;20461;-70
2023/02/10 06:34:40;;;;;;;20.97;13.47;;;4.40;99.90;;;;;;6122604;23;20514;-70
2023/02/10 06:37:07;;;;;;;21.57;11.67;;;4.40;99.90;;;;;;6120540;23;20953;-69
2023/02/10 06:39:34;;;;;;;26.97;13.00;;;4.30;99.90;;;;;;6121711;23;20446;-70
2023/02/10 06:42:01;;;;;;;23.00;13.37;;;4.30;99.90;;;;;;6122082;23;20890;-70
2023/02/10 06:44:28;;;;;;;24.77;13.43;;;4.30;99.90;;;;;;6120686;23;20465;-70
2023/02/10 06:46:56;;;;;;;22.53;13.10;;;4.30;99.90;;;;;;6122426;23;20680;-70
2023/02/10 06:49:23;;;;;;;27.67;14.40;;;4.40;99.90;;;;;;6122739;23;20423;-70
2023/02/10 06:51:50;;;;;;;23.00;13.30;;;4.50;99.90;;;;;;6120499;23;20848;-70
2023/02/10 06:54:17;;;;;;;36.80;14.57;;;4.60;99.90;;;;;;6123471;23;20515;-70
2023/02/10 06:56:45;;;;;;;22.20;11.20;;;4.60;99.90;;;;;;6122738;23;20801;-70
2023/02/10 06:59:12;;;;;;;20.43;9.93;;;4.70;99.90;;;;;;6126028;23;20678;-70
2023/02/10 07:01:42;;;;;;;34.93;13.97;;;4.60;99.90;;;;;;6122157;23;20441;-70
2023/02/10 07:04:10;;;;;;;22.07;14.80;;;4.50;99.90;;;;;;6121576;23;20399;-71
2023/02/10 07:06:37;;;;;;;24.57;11.50;;;4.50;99.90;;;;;;6122208;23;20728;-70
2023/02/10 07:09:04;;;;;;;19.20;10.27;;;4.60;99.90;;;;;;6120484;23;20799;-70
2023/02/10 07:11:31;;;;;;;13.50;9.60;;;4.60;99.90;;;;;;6121513;23;20550;-69
2023/02/10 07:13:58;;;;;;;20.50;10.33;;;4.60;99.90;;;;;;6121244;23;20415;-70
2023/02/10 07:16:27;;;;;;;24.27;10.70;;;4.60;99.90;;;;;;6121508;23;20411;-71
2023/02/10 07:18:54;;;;;;;21.50;9.67;;;4.60;99.90;;;;;;6123151;23;20429;-70
2023/02/10 07:21:22;;;;;;;21.17;12.97;;;4.70;99.90;;;;;;6124168;23;20434;-71
2023/02/10 07:23:50;;;;;;;26.27;10.20;;;4.80;99.90;;;;;;6124187;23;20446;-70
2023/02/10 07:26:17;;;;;;;21.53;10.87;;;4.90;99.90;;;;;;6123721;23;20484;-71
2023/02/10 07:28:44;;;;;;;21.47;10.60;;;4.80;99.90;;;;;;6122040;23;20962;-71
2023/02/10 07:31:11;;;;;;;23.93;11.77;;;4.80;99.90;;;;;;6123604;23;20417;-71
2023/02/10 07:33:39;;;;;;;23.63;13.20;;;4.80;99.90;;;;;;6122700;23;20474;-70
2023/02/10 07:36:06;;;;;;;15.03;7.67;;;4.90;99.90;;;;;;6122095;23;20412;-71
2023/02/10 07:38:35;;;;;;;25.37;13.53;;;5.00;99.90;;;;;;6123220;23;20386;-73
2023/02/10 07:41:03;;;;;;;30.03;12.93;;;4.90;99.90;;;;;;6121753;23;20522;-70
2023/02/10 07:43:30;;;;;;;30.20;13.77;;;5.00;99.90;;;;;;6121698;23;20403;-73
2023/02/10 07:45:57;;;;;;;23.20;11.70;;;5.10;99.90;;;;;;6121347;23;20816;-71
2023/02/10 07:48:25;;;;;;;32.20;11.77;;;5.10;99.90;;;;;;6121178;23;20494;-71
2023/02/10 07:50:52;;;;;;;27.30;12.17;;;5.10;99.90;;;;;;6120523;23;20454;-71
2023/02/10 07:53:20;;;;;;;36.87;12.90;;;5.20;99.90;;;;;;6121077;23;20418;-70
2023/02/10 07:55:50;;;;;;;38.07;13.00;;;5.30;99.90;;;;;;6122795;23;20438;-71
2023/02/10 07:58:18;;;;;;;26.37;12.70;;;5.50;99.90;;;;;;6122816;23;20897;-71
2023/02/10 08:00:45;;;;;;;29.40;12.73;;;5.50;99.90;;;;;;6121977;23;20943;-71
2023/02/10 08:03:13;;;;;;;26.00;11.97;;;5.70;99.90;;;;;;6121431;23;20442;-71
2023/02/10 08:05:41;;;;;;;26.67;12.40;;;5.70;99.90;;;;;;6121611;23;20412;-72
2023/02/10 08:08:09;;;;;;;19.27;11.13;;;5.70;99.90;;;;;;6117892;23;20389;-72
2023/02/10 08:10:38;;;;;;;11.43;7.90;;;5.60;99.90;;;;;;6122138;23;20407;-70
2023/02/10 08:13:07;;;;;;;23.60;11.50;;;5.60;99.90;;;;;;6121948;23;20441;-72
2023/02/10 08:15:34;;;;;;;14.67;7.33;;;5.60;99.90;;;;;;6122194;23;20921;-73
2023/02/10 08:18:02;;;;;;;26.70;12.87;;;5.50;99.90;;;;;;6125282;23;20385;-71
2023/02/10 08:20:29;;;;;;;22.73;10.60;;;5.30;99.90;;;;;;6121602;23;20809;-73
2023/02/10 08:22:58;;;;;;;24.27;10.93;;;5.30;99.90;;;;;;6122426;23;20419;-70
2023/02/10 08:25:25;;;;;;;12.70;7.43;;;5.50;99.90;;;;;;6121906;23;20454;-70
2023/02/10 08:27:52;;;;;;;34.40;13.37;;;5.70;99.90;;;;;;6121309;23;20772;-69
2023/02/10 08:30:20;;;;;;;23.87;10.97;;;5.80;99.90;;;;;;6123328;23;20498;-70
2023/02/10 08:32:49;;;;;;;17.33;11.00;;;5.90;99.90;;;;;;6123262;23;20897;-70
2023/02/10 08:35:16;;;;;;;25.07;11.50;;;6.20;99.90;;;;;;6124229;23;20436;-71
2023/02/10 08:37:43;;;;;;;22.43;11.63;;;6.30;99.90;;;;;;6123934;23;20390;-70
2023/02/10 08:40:11;;;;;;;27.03;11.80;;;6.70;99.90;;;;;;6123812;23;20392;-70
2023/02/10 08:42:38;;;;;;;34.40;14.63;;;6.90;99.90;;;;;;6122725;23;20514;-70
2023/02/10 08:45:05;;;;;;;32.27;13.80;;;7.00;99.90;;;;;;6122705;23;20824;-70
2023/02/10 08:47:34;;;;;;;23.93;11.20;;;7.20;99.90;;;;;;6122252;23;20490;-71
2023/02/10 08:50:01;;;;;;;22.63;12.63;;;7.20;99.90;;;;;;6122721;23;20432;-71
2023/02/10 08:52:29;;;;;;;27.93;11.00;;;7.10;99.90;;;;;;6122260;23;20801;-71
2023/02/10 08:54:56;;;;;;;22.00;13.57;;;7.10;99.90;;;;;;6125785;23;20501;-72
2023/02/10 08:57:23;;;;;;;20.93;13.07;;;7.40;99.90;;;;;;6125113;23;20446;-70
2023/02/10 08:59:50;;;;;;;24.23;12.67;;;7.50;99.90;;;;;;6123369;23;20546;-70
2023/02/10 09:02:17;;;;;;;27.60;14.47;;;7.70;99.90;;;;;;6123705;23;20398;-72
2023/02/10 09:04:45;;;;;;;18.90;12.73;;;7.70;99.90;;;;;;6124124;23;20775;-71
2023/02/10 09:07:13;;;;;;;29.93;13.60;;;7.60;99.90;;;;;;6124634;23;20762;-71
2023/02/10 09:09:42;;;;;;;27.13;13.20;;;7.60;99.90;;;;;;6124538;23;20409;-71
2023/02/10 09:12:11;;;;;;;29.73;13.23;;;7.60;99.90;;;;;;6124068;23;20501;-71
2023/02/10 09:14:38;;;;;;;22.80;9.37;;;7.50;99.90;;;;;;6125729;23;20378;-71
2023/02/10 09:17:07;;;;;;;24.03;12.40;;;7.60;99.90;;;;;;6122830;23;20411;-71
2023/02/10 09:19:34;;;;;;;23.63;11.10;;;7.50;99.90;;;;;;6125099;23;20418;-71
2023/02/10 09:22:03;;;;;;;32.93;16.03;;;7.20;99.90;;;;;;6123929;23;20398;-70
2023/02/10 09:24:30;;;;;;;24.10;13.20;;;7.00;99.90;;;;;;6123947;23;20442;-71
2023/02/10 09:26:57;;;;;;;28.27;15.60;;;6.90;99.90;;;;;;6125207;23;20456;-70
2023/02/10 09:29:24;;;;;;;21.80;11.80;;;6.90;99.90;;;;;;6124214;23;20473;-71
2023/02/10 09:31:52;;;;;;;33.60;13.90;;;6.80;99.90;;;;;;6124089;23;21062;-71
2023/02/10 09:34:19;;;;;;;19.07;11.20;;;6.80;99.90;;;;;;6126305;23;20366;-71
2023/02/10 09:36:46;;;;;;;21.50;10.70;;;6.80;99.90;;;;;;6127832;23;20494;-72
2023/02/10 09:39:15;;;;;;;32.07;12.97;;;6.80;99.90;;;;;;6124760;23;20468;-71
2023/02/10 09:41:58;;;;;;;26.03;12.87;;;6.70;99.90;;;;;;6126009;23;20437;-71
2023/02/10 09:44:30;;;;;;;23.20;13.13;;;6.80;99.90;;;;;;6123672;23;20370;-70
2023/02/10 09:47:21;;;;;;;16.30;10.50;;;6.80;99.90;;;;;;6125098;23;20381;-71
2023/02/10 09:50:06;;;;;;;27.33;11.13;;;7.00;99.90;;;;;;6121175;23;20406;-70
2023/02/10 09:52:46;;;;;;;20.03;10.73;;;7.70;99.90;;;;;;6072278;23;20481;-71
2023/02/10 09:55:18;;;;;;;17.77;11.20;;;8.70;99.90;;;;;;6124036;23;20791;-71
2023/02/10 09:57:49;;;;;;;14.57;7.67;;;8.50;99.90;;;;;;6123168;23;20378;-71
2023/02/10 10:00:26;;;;;;;24.80;11.37;;;8.30;99.90;;;;;;6123848;23;20872;-72
2023/02/10 10:02:55;;;;;;;18.33;8.20;;;9.00;99.90;;;;;;6123734;23;20444;-70
2023/02/10 10:05:31;;;;;;;18.10;11.27;;;9.80;99.90;;;;;;6123228;23;20413;-71
2023/02/10 10:08:00;;;;;;;28.20;12.63;;;10.50;99.90;;;;;;6123765;23;20373;-71
2023/02/10 10:10:33;;;;;;;26.07;13.13;;;10.20;99.90;;;;;;6129692;23;20420;-70
2023/02/10 10:13:00;;;;;;;25.80;10.07;;;9.90;99.90;;;;;;6125421;23;20398;-71
2023/02/10 10:15:32;;;;;;;24.73;14.07;;;9.60;99.90;;;;;;6126038;23;20399;-71
2023/02/10 10:18:07;;;;;;;24.27;12.20;;;10.40;99.90;;;;;;6124086;23;20486;-72
2023/02/10 10:20:50;;;;;;;24.93;12.77;;;11.20;99.90;;;;;;6125046;23;20779;-71
2023/02/10 10:23:34;;;;;;;24.17;14.33;;;11.40;99.90;;;;;;6125333;23;20865;-71
2023/02/10 10:26:35;;;;;;;21.43;10.97;;;10.90;99.90;;;;;;6123068;23;20382;-71
2023/02/10 10:29:15;;;;;;;22.30;10.30;;;10.50;99.90;;;;;;6123117;23;20434;-72
2023/02/10 10:31:46;;;;;;;33.87;15.30;;;10.80;99.90;;;;;;6123507;23;20947;-72
2023/02/10 10:34:17;;;;;;;26.60;12.40;;;11.30;99.90;;;;;;6123480;23;20404;-71
2023/02/10 10:36:46;;;;;;;19.43;9.50;;;12.10;99.90;;;;;;6121902;23;20465;-69
2023/02/10 10:39:24;;;;;;;27.97;14.53;;;12.30;99.90;;;;;;6122649;23;20428;-69
2023/02/10 10:41:54;;;;;;;26.50;11.53;;;12.50;99.90;;;;;;6123707;23;20409;-72
2023/02/10 10:44:22;;;;;;;32.80;11.90;;;12.60;99.90;;;;;;6123781;23;20418;-71
2023/02/10 10:46:56;;;;;;;24.10;10.83;;;12.70;99.90;;;;;;6124590;23;20423;-71
2023/02/10 10:49:23;;;;;;;33.00;15.70;;;13.00;99.90;;;;;;6123136;23;20403;-72
2023/02/10 10:51:50;;;;;;;14.17;7.90;;;13.20;99.90;;;;;;6124603;23;20493;-72
2023/02/10 10:54:21;;;;;;;31.00;15.10;;;13.60;99.90;;;;;;6127364;23;20723;-73
2023/02/10 10:56:53;;;;;;;24.83;13.23;;;13.70;99.90;;;;;;6125379;23;20399;-70
2023/02/10 10:59:26;;;;;;;25.90;13.30;;;13.50;99.90;;;;;;6124510;23;20884;-71
2023/02/10 11:01:54;;;;;;;23.50;11.03;;;12.90;99.90;;;;;;6124865;23;20803;-70
2023/02/10 11:04:23;;;;;;;29.63;14.47;;;12.50;99.90;;;;;;6122372;23;20494;-69
2023/02/10 11:06:54;;;;;;;27.77;13.03;;;12.40;99.90;;;;;;6130014;23;20417;-72
2023/02/10 11:09:26;;;;;;;23.23;10.80;;;12.20;99.90;;;;;;6127953;23;20490;-73
2023/02/10 11:12:03;;;;;;;27.30;12.33;;;11.80;99.90;;;;;;6122693;23;20426;-70
2023/02/10 11:14:37;;;;;;;19.33;10.07;;;11.90;99.90;;;;;;6123935;23;20453;-70
2023/02/10 11:17:04;;;;;;;28.27;13.70;;;12.00;99.90;;;;;;6124628;23;20421;-72
2023/02/10 11:19:34;;;;;;;20.40;13.73;;;12.20;99.90;;;;;;6124718;23;20442;-70
2023/02/10 11:22:02;;;;;;;22.20;11.53;;;12.10;99.90;;;;;;6123671;23;20790;-70
2023/02/10 11:24:32;;;;;;;28.07;13.03;;;11.40;99.90;;;;;;6123846;23;20705;-70
2023/02/10 11:27:03;;;;;;;22.77;9.50;;;10.90;99.90;;;;;;6124061;23;20497;-70
2023/02/10 11:29:34;;;;;;;20.80;8.77;;;10.70;99.90;;;;;;6123584;23;20409;-71
2023/02/10 11:32:02;;;;;;;33.23;12.23;;;11.00;99.90;;;;;;6124270;23;20479;-71
2023/02/10 11:34:35;;;;;;;24.47;12.97;;;11.70;99.90;;;;;;6123321;23;20449;-71
2023/02/10 11:37:12;;;;;;;25.67;12.60;;;12.20;99.90;;;;;;6123684;23;20417;-71
2023/02/10 11:39:42;;;;;;;24.90;14.17;;;12.60;99.90;;;;;;6123462;23;20518;-71
2023/02/10 11:42:12;;;;;;;21.80;11.57;;;12.80;99.90;;;;;;6123539;23;20815;-70
2023/02/10 11:44:39;;;;;;;17.70;9.47;;;12.80;99.90;;;;;;6123535;23;20967;-70
2023/02/10 11:47:15;;;;;;;27.87;13.00;;;12.90;99.90;;;;;;6124111;23;20415;-71
2023/02/10 11:49:45;;;;;;;9.33;6.77;;;13.10;99.90;;;;;;6123941;23;20449;-71
2023/02/10 11:52:12;;;;;;;22.47;9.70;;;13.20;99.90;;;;;;6124006;23;21159;-70
2023/02/10 11:54:40;;;;;;;29.57;12.67;;;12.40;99.90;;;;;;6122914;23;20489;-71
2023/02/10 12:00:26;;;;;;;22.80;11.87;;;11.40;99.90;;;;;;6124533;23;20486;-70
2023/02/10 12:03:18;;;;;;;32.37;13.30;;;10.90;99.90;;;;;;6127881;23;20362;-71
2023/02/10 12:05:52;;;;;;;24.40;12.13;;;10.90;99.90;;;;;;6124626;23;20465;-71
2023/02/10 12:08:28;;;;;;;30.43;5.30;;;11.10;99.90;;;;;;6123469;23;20369;-71
2023/02/10 12:10:58;;;;;;;18.27;10.37;;;11.60;99.90;;;;;;6122270;23;20416;-70
2023/02/10 12:13:35;;;;;;;20.03;10.60;;;12.20;99.90;;;;;;6123927;23;20939;-71
2023/02/10 12:16:11;;;;;;;21.97;10.10;;;13.00;99.90;;;;;;6123580;23;20461;-72
2023/02/10 12:18:58;;;;;;;20.63;10.90;;;13.60;99.90;;;;;;6123497;23;20462;-70
2023/02/10 12:21:42;;;;;;;21.73;9.27;;;13.80;99.90;;;;;;6121453;23;21005;-70
2023/02/10 12:24:21;;;;;;;17.13;9.13;;;13.90;99.90;;;;;;6121798;23;20414;-70
2023/02/10 12:26:55;;;;;;;26.47;11.53;;;14.30;99.90;;;;;;6122883;23;21060;-69
2023/02/10 12:29:37;;;;;;;22.27;11.30;;;15.00;99.90;;;;;;6122424;23;20395;-70
2023/02/10 12:32:16;;;;;;;19.23;12.30;;;15.20;99.90;;;;;;6121361;23;20510;-69
2023/02/10 12:35:07;;;;;;;19.20;11.63;;;15.00;99.90;;;;;;6122026;23;20442;-70
2023/02/10 12:37:43;;;;;;;18.73;8.33;;;15.00;99.90;;;;;;6110932;23;21022;-70
2023/02/10 12:40:32;;;;;;;16.37;8.33;;;14.20;99.90;;;;;;6124113;23;20447;-70
2023/02/10 12:43:09;;;;;;;17.43;7.43;;;13.30;99.90;;;;;;6123046;23;20391;-70
2023/02/10 12:45:49;;;;;;;22.70;11.00;;;12.60;99.90;;;;;;6125019;23;20879;-70
2023/02/10 12:48:28;;;;;;;24.97;10.60;;;12.50;99.90;;;;;;6123353;23;20423;-70
2023/02/10 12:51:16;;;;;;;16.03;6.50;;;13.10;99.90;;;;;;6124751;23;20533;-70
2023/02/10 12:53:48;;;;;;;19.37;10.60;;;13.80;99.90;;;;;;6124756;23;20816;-73
2023/02/10 12:56:22;;;;;;;18.53;8.33;;;14.10;99.90;;;;;;6124727;23;20421;-70